createdAt,value
2022-09-11T00:01:59.007Z,66.53
2022-09-11T00:04:27.388Z,57.97
2022-09-11T00:06:54.354Z,60.70
2022-09-11T00:09:21.137Z,65.13
2022-09-11T00:11:47.782Z,67.97
2022-09-11T00:14:15.068Z,57.80
2022-09-11T00:16:47.658Z,64.13
2022-09-11T00:19:19.597Z,66.33
2022-09-11T00:21:47.362Z,63.57
2022-09-11T00:24:14.347Z,66.00
2022-09-11T00:26:42.643Z,71.33
2022-09-11T00:29:09.846Z,68.37
2022-09-11T00:31:36.916Z,67.30
2022-09-11T00:34:07.862Z,65.37
2022-09-11T00:36:54.891Z,76.43
2022-09-11T00:39:22.130Z,69.90
2022-09-11T00:41:52.170Z,75.93
2022-09-11T00:44:24.763Z,65.60
2022-09-11T00:46:57.241Z,72.50
2022-09-11T00:49:40.346Z,70.93
2022-09-11T00:52:22.657Z,88.73
2022-09-11T00:54:56.982Z,67.63
2022-09-11T00:57:29.147Z,67.90
2022-09-11T01:00:01.430Z,71.63
2022-09-11T01:02:32.691Z,70.40
2022-09-11T01:05:00.172Z,74.40
2022-09-11T01:07:27.126Z,65.50
2022-09-11T01:09:54.257Z,78.40
2022-09-11T01:12:41.078Z,72.70
2022-09-11T01:15:09.630Z,79.97
2022-09-11T01:18:03.372Z,96.17
2022-09-11T01:21:02.799Z,88.13
2022-09-11T01:23:48.919Z,84.67
2022-09-11T01:26:20.270Z,76.87
2022-09-11T01:32:09.308Z,89.87
2022-09-11T01:35:10.755Z,78.83
2022-09-11T01:37:41.586Z,84.13
2022-09-11T01:40:22.869Z,81.13
2022-09-11T01:43:05.881Z,76.37
2022-09-11T01:45:46.230Z,89.40
2022-09-11T01:48:26.411Z,89.47
2022-09-11T01:50:57.092Z,95.50
2022-09-11T01:53:27.404Z,87.87
2022-09-11T01:56:21.687Z,84.47
2022-09-11T01:58:52.251Z,94.03
2022-09-11T02:01:27.255Z,91.67
2022-09-11T02:04:07.533Z,87.13
2022-09-11T02:06:52.240Z,151.10
2022-09-11T02:09:26.031Z,138.97
2022-09-11T02:11:55.462Z,150.13
2022-09-11T02:14:40.782Z,141.97
2022-09-11T02:17:21.056Z,200.23
2022-09-11T02:20:12.313Z,207.63
2022-09-11T02:22:40.462Z,318.43
2022-09-11T02:25:22.601Z,277.33
2022-09-11T02:28:04.401Z,185.30
2022-09-11T02:30:33.905Z,237.70
2022-09-11T02:33:01.874Z,367.93
2022-09-11T02:35:43.812Z,271.30
2022-09-11T02:38:32.910Z,618.80
2022-09-11T02:41:15.140Z,303.27
2022-09-11T02:44:11.573Z,267.50
2022-09-11T02:46:52.956Z,323.53
2022-09-11T02:49:55.120Z,376.93
2022-09-11T02:52:37.711Z,349.20
2022-09-11T02:55:12.588Z,434.60
2022-09-11T02:57:46.624Z,387.60
2022-09-11T03:00:14.008Z,466.40
2022-09-11T03:02:43.759Z,431.87
2022-09-11T03:05:15.615Z,742.87
2022-09-11T03:07:42.550Z,285.10
2022-09-11T03:10:12.169Z,491.97
2022-09-11T03:12:39.852Z,295.37
2022-09-11T03:15:08.313Z,309.40
2022-09-11T03:17:35.426Z,465.87
2022-09-11T03:20:06.149Z,624.70
2022-09-11T03:22:40.929Z,451.10
2022-09-11T03:25:14.826Z,282.33
2022-09-11T03:28:11.513Z,297.53
2022-09-11T03:30:40.250Z,303.83
2022-09-11T03:33:24.755Z,275.83
2022-09-11T03:36:05.621Z,383.27
2022-09-11T03:38:44.975Z,488.33
2022-09-11T03:41:17.254Z,256.70
2022-09-11T03:43:53.463Z,367.57
2022-09-11T03:46:25.935Z,231.57
2022-09-11T03:49:09.929Z,452.23
2022-09-11T03:51:38.330Z,476.63
2022-09-11T03:54:21.020Z,212.27
2022-09-11T03:56:51.848Z,363.23
2022-09-11T03:59:21.008Z,235.03
2022-09-11T04:01:50.741Z,251.47
2022-09-11T04:04:18.020Z,241.43
2022-09-11T04:06:47.558Z,306.23
2022-09-11T04:09:14.820Z,298.63
2022-09-11T04:11:43.949Z,484.70
2022-09-11T04:14:19.319Z,402.53
2022-09-11T04:16:46.310Z,652.20
2022-09-11T04:19:13.357Z,412.00
2022-09-11T04:21:42.421Z,559.63
2022-09-11T04:24:15.888Z,787.53
2022-09-11T04:26:46.960Z,423.33
2022-09-11T04:29:23.333Z,467.43
2022-09-11T04:31:51.609Z,429.23
2022-09-11T04:34:19.304Z,444.57
2022-09-11T04:36:47.213Z,473.80
2022-09-11T04:39:19.358Z,795.30
2022-09-11T04:41:49.671Z,608.10
2022-09-11T04:44:26.934Z,382.50
2022-09-11T04:47:04.670Z,468.83
2022-09-11T04:49:32.278Z,605.00
2022-09-11T04:52:16.983Z,613.93
2022-09-11T04:54:47.012Z,701.10
2022-09-11T04:57:16.634Z,308.67
2022-09-11T04:59:48.505Z,317.83
2022-09-11T05:02:18.170Z,363.47
2022-09-11T05:04:52.296Z,503.20
2022-09-11T05:07:19.428Z,540.57
2022-09-11T05:09:49.329Z,406.07
2022-09-11T05:12:18.267Z,74.53
2022-09-11T05:14:46.624Z,185.00
2022-09-11T05:17:19.268Z,382.53
2022-09-11T05:19:47.058Z,256.93
2022-09-11T05:22:16.142Z,186.70
2022-09-11T05:24:48.377Z,174.87
2022-09-11T05:27:15.263Z,372.70
2022-09-11T05:29:42.289Z,97.57
2022-09-11T05:32:14.442Z,107.77
2022-09-11T05:34:44.983Z,79.50
2022-09-11T05:37:15.187Z,92.33
2022-09-11T05:39:48.069Z,74.40
2022-09-11T05:42:21.375Z,80.83
2022-09-11T05:44:52.628Z,77.23
2022-09-11T05:47:21.090Z,64.40
2022-09-11T05:49:50.980Z,72.77
2022-09-11T05:52:18.263Z,87.23
2022-09-11T05:54:46.894Z,89.50
2022-09-11T05:57:16.965Z,64.10
2022-09-11T05:59:46.002Z,136.50
2022-09-11T06:02:16.257Z,110.90
2022-09-11T06:04:51.085Z,101.40
2022-09-11T06:07:23.488Z,80.13
2022-09-11T06:09:53.947Z,87.47
2022-09-11T06:12:22.346Z,82.63
2022-09-11T06:14:52.843Z,82.10
2022-09-11T06:17:21.493Z,79.83
2022-09-11T06:19:48.196Z,61.63
2022-09-11T06:22:16.298Z,85.73
2022-09-11T06:24:44.573Z,77.87
2022-09-11T06:27:11.525Z,68.13
2022-09-11T06:29:44.093Z,65.10
2022-09-11T06:32:13.465Z,64.27
2022-09-11T06:34:43.522Z,73.53
2022-09-11T06:37:13.703Z,62.27
2022-09-11T06:39:48.244Z,67.30
2022-09-11T06:42:25.353Z,66.80
2022-09-11T06:45:00.156Z,145.27
2022-09-11T06:47:29.477Z,52.90
2022-09-11T06:50:12.073Z,60.87
2022-09-11T06:53:15.502Z,63.03
2022-09-11T06:55:53.923Z,64.80
2022-09-11T06:58:23.569Z,64.43
2022-09-11T07:00:52.618Z,56.90
2022-09-11T07:03:23.270Z,64.87
2022-09-11T07:05:52.112Z,65.83
2022-09-11T07:08:24.740Z,63.20
2022-09-11T07:10:57.273Z,80.90
2022-09-11T07:13:24.466Z,75.93
2022-09-11T07:16:05.788Z,67.07
2022-09-11T07:18:43.224Z,78.73
2022-09-11T07:21:21.730Z,80.10
2022-09-11T07:23:54.479Z,85.93
2022-09-11T07:26:23.308Z,58.33
2022-09-11T07:28:55.075Z,62.63
2022-09-11T07:31:29.402Z,68.93
2022-09-11T07:33:57.630Z,60.63
2022-09-11T07:36:28.016Z,58.83
2022-09-11T07:38:57.892Z,55.83
2022-09-11T07:41:33.834Z,68.40
2022-09-11T07:44:06.119Z,56.57
2022-09-11T07:46:35.347Z,69.90
2022-09-11T07:49:12.502Z,55.43
2022-09-11T07:51:57.829Z,61.17
2022-09-11T07:54:34.879Z,93.33
2022-09-11T07:57:03.472Z,81.70
2022-09-11T07:59:31.369Z,59.40
2022-09-11T08:02:00.284Z,74.07
2022-09-11T08:04:28.944Z,60.33
2022-09-11T08:06:56.950Z,120.10
2022-09-11T08:09:30.946Z,73.23
2022-09-11T08:12:02.303Z,72.40
2022-09-11T08:14:31.691Z,139.27
2022-09-11T08:17:06.187Z,71.20
2022-09-11T08:19:33.327Z,89.80
2022-09-11T08:22:05.262Z,77.80
2022-09-11T08:27:43.126Z,85.97
2022-09-11T08:30:16.425Z,71.93
2022-09-11T08:32:43.418Z,79.27
2022-09-11T08:35:13.365Z,86.43
2022-09-11T08:37:45.011Z,61.43
2022-09-11T08:40:16.901Z,73.30
2022-09-11T08:43:00.997Z,64.33
2022-09-11T08:45:33.953Z,63.03
2022-09-11T08:48:09.254Z,68.03
2022-09-11T08:50:45.840Z,63.23
2022-09-11T08:56:11.412Z,84.43
2022-09-11T08:59:18.887Z,56.43
2022-09-11T09:02:39.288Z,46.40
2022-09-11T09:05:32.458Z,63.03
2022-09-11T09:08:18.373Z,45.10
2022-09-11T09:10:53.032Z,63.10
2022-09-11T09:13:39.499Z,54.03
2022-09-11T09:16:31.437Z,50.57
2022-09-11T09:19:03.248Z,48.23
2022-09-11T09:21:32.182Z,48.60
2022-09-11T09:24:03.795Z,43.00
2022-09-11T09:26:40.250Z,48.07
2022-09-11T09:29:23.914Z,42.13
2022-09-11T09:31:54.408Z,36.63
2022-09-11T09:34:31.251Z,41.57
2022-09-11T09:37:27.997Z,37.13
2022-09-11T09:39:55.876Z,34.70
2022-09-11T09:42:44.891Z,37.03
2022-09-11T09:45:26.502Z,38.97
2022-09-11T09:47:56.305Z,37.77
2022-09-11T09:50:33.409Z,35.50
2022-09-11T09:53:11.477Z,28.87
2022-09-11T09:55:41.264Z,29.40
2022-09-11T09:58:07.906Z,30.70
2022-09-11T10:00:37.319Z,32.83
2022-09-11T10:03:21.969Z,36.07
2022-09-11T10:06:10.439Z,36.00
2022-09-11T10:08:40.520Z,33.33
2022-09-11T10:11:11.091Z,31.00
2022-09-11T10:13:53.604Z,30.23
2022-09-11T10:16:21.975Z,32.30
2022-09-11T10:18:53.093Z,31.50
2022-09-11T10:24:42.945Z,27.03
2022-09-11T10:27:21.060Z,30.53
2022-09-11T10:30:02.445Z,30.00
2022-09-11T10:32:42.869Z,30.13
2022-09-11T10:35:19.385Z,30.80
2022-09-11T10:38:13.774Z,30.23
2022-09-11T10:41:22.156Z,30.23
2022-09-11T10:43:51.331Z,30.60
2022-09-11T10:46:17.853Z,31.90
2022-09-11T10:49:00.845Z,29.33
2022-09-11T10:51:30.033Z,31.00
2022-09-11T10:54:24.401Z,31.47
2022-09-11T10:57:05.793Z,28.50
2022-09-11T11:00:07.946Z,29.80
2022-09-11T11:02:52.765Z,27.30
2022-09-11T11:05:45.200Z,24.23
2022-09-11T11:08:42.928Z,26.03
2022-09-11T11:11:40.706Z,27.23
2022-09-11T11:14:21.257Z,25.90
2022-09-11T11:17:06.175Z,30.30
2022-09-11T11:19:51.549Z,33.03
2022-09-11T11:22:36.994Z,31.97
2022-09-11T11:25:21.640Z,26.43
2022-09-11T11:28:18.264Z,25.83
2022-09-11T11:30:50.764Z,30.40
2022-09-11T11:33:20.175Z,26.87
2022-09-11T11:35:52.755Z,25.87
2022-09-11T11:38:24.304Z,28.67
2022-09-11T11:41:25.726Z,27.80
2022-09-11T11:44:32.800Z,25.30
2022-09-11T11:47:05.080Z,24.00
2022-09-11T11:49:55.298Z,25.17
2022-09-11T11:52:49.488Z,23.37
2022-09-11T11:55:20.782Z,24.07
2022-09-11T11:58:01.732Z,24.27
2022-09-11T12:00:29.609Z,25.67
2022-09-11T12:03:42.919Z,26.70
2022-09-11T12:06:11.645Z,28.13
2022-09-11T12:09:00.127Z,24.63
2022-09-11T12:11:40.198Z,21.73
2022-09-11T12:14:39.756Z,23.70
2022-09-11T12:17:29.990Z,21.60
2022-09-11T12:20:12.448Z,22.37
2022-09-11T12:22:53.635Z,26.23
2022-09-11T12:25:33.685Z,32.50
2022-09-11T12:28:10.932Z,21.73
2022-09-11T12:31:08.002Z,25.20
2022-09-11T12:33:41.027Z,21.50
2022-09-11T12:36:17.614Z,22.07
2022-09-11T12:39:25.191Z,24.40
2022-09-11T12:41:52.009Z,20.53
2022-09-11T12:44:30.050Z,22.43
2022-09-11T12:46:56.663Z,21.03
2022-09-11T12:49:24.189Z,20.53
2022-09-11T12:51:55.936Z,22.83
2022-09-11T12:54:25.056Z,22.40
2022-09-11T12:57:06.889Z,17.87
2022-09-11T12:59:37.964Z,18.00
2022-09-11T13:02:16.419Z,21.90
2022-09-11T13:04:43.691Z,19.13
2022-09-11T13:07:26.488Z,20.40
2022-09-11T13:09:54.397Z,21.93
2022-09-11T13:12:23.935Z,20.23
2022-09-11T13:14:56.282Z,15.67
2022-09-11T13:17:30.341Z,19.87
2022-09-11T13:20:21.528Z,16.57
2022-09-11T13:22:49.109Z,19.80
2022-09-11T13:25:28.272Z,13.97
2022-09-11T13:27:57.143Z,12.20
2022-09-11T13:30:24.755Z,14.90
2022-09-11T13:33:03.277Z,13.90
2022-09-11T13:35:30.088Z,16.57
2022-09-11T13:38:02.508Z,13.30
2022-09-11T13:40:56.963Z,10.23
2022-09-11T13:43:29.761Z,10.00
2022-09-11T13:46:10.562Z,10.40
2022-09-11T13:48:37.354Z,11.07
2022-09-11T13:51:05.619Z,12.23
2022-09-11T13:53:33.661Z,10.80
2022-09-11T13:56:00.310Z,9.93
2022-09-11T13:58:35.218Z,16.47
2022-09-11T14:01:12.326Z,9.23
2022-09-11T14:03:43.452Z,10.17
2022-09-11T14:06:14.304Z,9.93
2022-09-11T14:08:50.066Z,9.67
2022-09-11T14:11:26.058Z,10.20
2022-09-11T14:14:00.153Z,10.20
2022-09-11T14:16:34.572Z,11.53
2022-09-11T14:19:11.009Z,9.13
2022-09-11T14:21:39.467Z,10.60
2022-09-11T14:24:24.353Z,11.07
2022-09-11T14:26:59.550Z,10.63
2022-09-11T14:29:31.607Z,13.10
2022-09-11T14:32:27.511Z,7.80
2022-09-11T14:34:54.506Z,8.53
2022-09-11T14:37:21.778Z,8.10
2022-09-11T14:40:00.179Z,9.57
2022-09-11T14:42:29.119Z,9.00
2022-09-11T14:44:56.134Z,8.37
2022-09-11T14:47:25.296Z,19.03
2022-09-11T14:49:53.558Z,10.50
2022-09-11T14:52:24.903Z,10.63
2022-09-11T14:54:53.888Z,9.77
2022-09-11T14:57:26.278Z,9.27
2022-09-11T14:59:53.138Z,9.20
2022-09-11T15:02:22.302Z,10.27
2022-09-11T15:04:53.429Z,6.07
2022-09-11T15:07:23.308Z,10.07
2022-09-11T15:09:53.136Z,6.90
2022-09-11T15:12:20.684Z,9.00
2022-09-11T15:14:57.777Z,11.77
2022-09-11T15:17:25.592Z,10.60
2022-09-11T15:19:54.341Z,7.20
2022-09-11T15:22:21.289Z,11.00
2022-09-11T15:24:49.860Z,7.57
2022-09-11T15:27:19.049Z,7.87
2022-09-11T15:29:46.149Z,7.20
2022-09-11T15:32:14.467Z,13.00
2022-09-11T15:34:42.015Z,8.13
2022-09-11T15:37:08.689Z,10.23
2022-09-11T15:39:35.444Z,9.00
2022-09-11T15:42:02.188Z,8.03
2022-09-11T15:44:29.098Z,6.83
2022-09-11T15:46:57.407Z,10.67
2022-09-11T15:49:25.457Z,7.03
2022-09-11T15:51:53.960Z,7.90
2022-09-11T15:54:23.347Z,10.73
2022-09-11T15:56:51.281Z,9.23
2022-09-11T15:59:18.135Z,9.03
2022-09-11T16:01:45.153Z,9.83
2022-09-11T16:04:14.474Z,8.80
2022-09-11T16:06:43.027Z,8.23
2022-09-11T16:09:12.798Z,8.50
2022-09-11T16:11:43.907Z,7.60
2022-09-11T16:14:18.788Z,8.40
2022-09-11T16:16:47.181Z,11.50
2022-09-11T16:19:18.567Z,9.87
2022-09-11T16:21:46.580Z,10.87
2022-09-11T16:24:15.515Z,10.23
2022-09-11T16:26:44.039Z,8.00
2022-09-11T16:29:12.487Z,9.73
2022-09-11T16:31:40.055Z,9.90
2022-09-11T16:34:07.346Z,12.00
2022-09-11T16:36:38.861Z,11.40
2022-09-11T16:39:10.725Z,8.80
2022-09-11T16:41:37.640Z,10.70
2022-09-11T16:44:05.734Z,15.57
2022-09-11T16:46:33.357Z,10.60
2022-09-11T16:49:02.710Z,11.07
2022-09-11T16:51:30.127Z,7.43
2022-09-11T16:53:56.932Z,9.93
2022-09-11T16:56:24.528Z,12.57
2022-09-11T16:58:51.442Z,11.77
2022-09-11T17:01:20.613Z,8.93
2022-09-11T17:03:49.501Z,9.13
2022-09-11T17:06:16.807Z,13.80
2022-09-11T17:08:44.745Z,10.70
2022-09-11T17:11:13.791Z,10.07
2022-09-11T17:13:41.828Z,10.83
2022-09-11T17:16:15.984Z,11.57
2022-09-11T17:18:54.015Z,10.10
2022-09-11T17:21:25.763Z,11.77
2022-09-11T17:23:54.368Z,10.13
2022-09-11T17:26:21.837Z,10.00
2022-09-11T17:28:49.521Z,11.10
2022-09-11T17:31:17.615Z,12.10
2022-09-11T17:33:45.473Z,10.90
2022-09-11T17:36:13.422Z,13.53
2022-09-11T17:38:40.400Z,11.00
2022-09-11T17:41:08.283Z,13.03
2022-09-11T17:43:36.436Z,11.67
2022-09-11T17:46:12.241Z,11.50
2022-09-11T17:48:39.943Z,11.30
2022-09-11T17:51:14.166Z,10.93
2022-09-11T17:53:43.085Z,13.87
2022-09-11T17:56:14.272Z,12.57
2022-09-11T17:58:42.087Z,13.87
2022-09-11T18:01:09.138Z,10.80
2022-09-11T18:03:36.390Z,12.07
2022-09-11T18:06:05.292Z,15.97
2022-09-11T18:08:33.307Z,14.27
2022-09-11T18:11:01.058Z,18.37
2022-09-11T18:13:31.391Z,17.00
2022-09-11T18:15:58.054Z,17.30
2022-09-11T18:18:25.002Z,12.03
2022-09-11T18:20:55.400Z,13.90
2022-09-11T18:23:23.172Z,15.23
2022-09-11T18:25:50.838Z,14.40
2022-09-11T18:28:19.910Z,12.40
2022-09-11T18:30:47.423Z,11.80
2022-09-11T18:33:16.669Z,14.00
2022-09-11T18:35:44.288Z,15.23
2022-09-11T18:38:11.185Z,17.07
2022-09-11T18:40:37.849Z,13.10
2022-09-11T18:43:06.258Z,12.97
2022-09-11T18:45:35.483Z,15.77
2022-09-11T18:48:03.316Z,13.00
2022-09-11T18:50:30.106Z,12.50
2022-09-11T18:52:56.865Z,12.27
2022-09-11T18:55:25.016Z,11.80
2022-09-11T18:57:52.053Z,14.40
2022-09-11T19:00:20.488Z,13.50
2022-09-11T19:02:47.929Z,13.40
2022-09-11T19:05:17.949Z,13.07
2022-09-11T19:07:45.601Z,14.43
2022-09-11T19:10:12.571Z,11.50
2022-09-11T19:12:39.971Z,11.13
2022-09-11T19:15:10.337Z,12.40
2022-09-11T19:17:39.815Z,10.70
2022-09-11T19:20:09.694Z,9.93
2022-09-11T19:22:36.304Z,10.13
2022-09-11T19:25:03.514Z,16.53
2022-09-11T19:27:31.666Z,10.33
2022-09-11T19:29:59.913Z,11.73
2022-09-11T19:32:28.425Z,10.43
2022-09-11T19:34:55.261Z,8.43
2022-09-11T19:37:21.835Z,9.57
2022-09-11T19:39:50.767Z,10.70
2022-09-11T19:42:18.101Z,9.83
2022-09-11T19:44:45.543Z,9.53
2022-09-11T19:47:12.462Z,11.13
2022-09-11T19:49:39.070Z,12.10
2022-09-11T19:52:06.553Z,10.43
2022-09-11T19:54:34.614Z,8.57
2022-09-11T19:57:02.350Z,12.40
2022-09-11T19:59:29.045Z,12.23
2022-09-11T20:01:55.709Z,11.73
2022-09-11T20:04:27.445Z,12.27
2022-09-11T20:09:30.852Z,11.27
2022-09-11T20:11:57.929Z,12.83
2022-09-11T20:14:24.539Z,11.53
2022-09-11T20:16:51.160Z,13.33
2022-09-11T20:19:17.785Z,15.90
2022-09-11T20:21:44.386Z,13.40
2022-09-11T20:24:10.939Z,13.17
2022-09-11T20:26:37.592Z,13.13
2022-09-11T20:29:07.160Z,15.80
2022-09-11T20:31:46.403Z,15.53
2022-09-11T20:34:17.575Z,10.90
2022-09-11T20:36:44.539Z,8.90
2022-09-11T20:39:15.090Z,10.17
2022-09-11T20:41:44.654Z,11.97
2022-09-11T20:44:12.030Z,12.47
2022-09-11T20:46:38.907Z,11.00
2022-09-11T20:49:06.691Z,13.73
2022-09-11T20:51:34.649Z,12.90
2022-09-11T20:54:01.547Z,12.83
2022-09-11T20:56:28.341Z,13.63
2022-09-11T20:58:55.720Z,18.03
2022-09-11T21:01:24.927Z,9.93
2022-09-11T21:03:53.831Z,14.30
2022-09-11T21:06:25.644Z,11.00
2022-09-11T21:08:55.382Z,17.50
2022-09-11T21:11:23.690Z,15.20
2022-09-11T21:13:50.468Z,12.57
2022-09-11T21:16:17.712Z,15.50
2022-09-11T21:18:49.658Z,17.73
2022-09-11T21:21:17.000Z,21.00
2022-09-11T21:23:43.630Z,15.27
2022-09-11T21:26:11.610Z,17.40
2022-09-11T21:28:38.179Z,17.40
2022-09-11T21:31:04.996Z,21.20
2022-09-11T21:33:33.122Z,15.70
2022-09-11T21:35:59.982Z,15.83
2022-09-11T21:38:30.409Z,20.27
2022-09-11T21:40:58.454Z,16.77
2022-09-11T21:43:25.870Z,17.63
2022-09-11T21:45:52.849Z,20.73
2022-09-11T21:48:19.535Z,24.00
2022-09-11T21:50:46.140Z,15.80
2022-09-11T21:53:12.763Z,19.03
2022-09-11T21:55:41.160Z,21.13
2022-09-11T21:58:08.130Z,22.00
2022-09-11T22:00:42.021Z,20.97
2022-09-11T22:03:10.201Z,21.53
2022-09-11T22:05:45.028Z,23.13
2022-09-11T22:08:13.005Z,23.03
2022-09-11T22:10:50.436Z,19.03
2022-09-11T22:13:18.369Z,15.73
2022-09-11T22:15:47.387Z,22.10
2022-09-11T22:18:14.758Z,25.10
2022-09-11T22:20:41.783Z,19.30
2022-09-11T22:23:11.619Z,21.60
2022-09-11T22:25:40.186Z,24.03
2022-09-11T22:28:07.160Z,18.77
2022-09-11T22:30:33.773Z,19.73
2022-09-11T22:33:00.587Z,32.37
2022-09-11T22:35:28.247Z,23.60
2022-09-11T22:37:54.871Z,22.37
2022-09-11T22:40:21.434Z,27.37
2022-09-11T22:42:48.121Z,23.70
2022-09-11T22:45:14.739Z,27.33
2022-09-11T22:47:41.357Z,25.17
2022-09-11T22:50:08.299Z,25.93
2022-09-11T22:52:36.823Z,25.70
2022-09-11T22:55:05.179Z,22.80
2022-09-11T22:57:31.893Z,25.97
2022-09-11T22:59:58.981Z,21.17
2022-09-11T23:02:27.062Z,20.90
2022-09-11T23:05:12.039Z,21.73
2022-09-11T23:07:38.616Z,24.40
2022-09-11T23:10:05.680Z,18.20
2022-09-11T23:12:32.222Z,20.13
2022-09-11T23:14:58.787Z,24.13
2022-09-11T23:17:26.462Z,17.90
2022-09-11T23:19:53.140Z,17.20
2022-09-11T23:22:20.045Z,21.23
2022-09-11T23:24:46.631Z,21.70
2022-09-11T23:27:13.177Z,19.30
2022-09-11T23:29:39.796Z,19.80
2022-09-11T23:32:07.130Z,22.83
2022-09-11T23:34:35.880Z,20.50
2022-09-11T23:37:02.491Z,20.23
2022-09-11T23:39:28.996Z,20.00
2022-09-11T23:41:55.635Z,23.97
2022-09-11T23:44:22.212Z,24.40
2022-09-11T23:46:51.011Z,18.87
2022-09-11T23:49:17.621Z,21.13
2022-09-11T23:51:44.196Z,26.40
2022-09-11T23:54:10.745Z,20.60
2022-09-11T23:56:37.312Z,26.30
2022-09-11T23:59:03.877Z,30.17
